createdAt,value
2022-12-05T00:01:28.393Z,0.60
2022-12-05T00:03:57.932Z,0.60
2022-12-05T00:06:25.839Z,0.60
2022-12-05T00:08:53.038Z,0.60
2022-12-05T00:11:26.701Z,0.60
2022-12-05T00:13:55.272Z,0.60
2022-12-05T00:16:24.476Z,0.50
2022-12-05T00:18:52.265Z,0.50
2022-12-05T00:21:25.842Z,0.50
2022-12-05T00:23:54.090Z,0.60
2022-12-05T00:26:22.001Z,0.60
2022-12-05T00:28:49.644Z,0.60
2022-12-05T00:31:19.792Z,0.60
2022-12-05T00:33:47.175Z,0.60
2022-12-05T00:36:18.107Z,0.60
2022-12-05T00:38:45.511Z,0.60
2022-12-05T00:41:18.100Z,0.60
2022-12-05T00:43:45.316Z,0.60
2022-12-05T00:46:15.369Z,0.70
2022-12-05T00:48:43.187Z,0.60
2022-12-05T00:51:12.673Z,0.60
2022-12-05T00:53:40.628Z,0.60
2022-12-05T00:56:13.623Z,0.60
2022-12-05T00:58:40.726Z,0.60
2022-12-05T01:01:15.042Z,0.70
2022-12-05T01:03:43.477Z,0.70
2022-12-05T01:06:12.310Z,0.70
2022-12-05T01:08:39.516Z,0.60
2022-12-05T01:11:07.699Z,0.60
2022-12-05T01:13:35.361Z,0.60
2022-12-05T01:16:02.154Z,0.60
2022-12-05T01:18:29.295Z,0.60
2022-12-05T01:20:56.822Z,0.60
2022-12-05T01:23:23.693Z,0.60
2022-12-05T01:25:53.028Z,0.60
2022-12-05T01:28:20.137Z,0.50
2022-12-05T01:30:49.257Z,0.50
2022-12-05T01:33:17.198Z,0.50
2022-12-05T01:35:45.062Z,0.40
2022-12-05T01:38:13.457Z,0.40
2022-12-05T01:40:41.345Z,0.40
2022-12-05T01:43:16.205Z,0.40
2022-12-05T01:45:46.060Z,0.50
2022-12-05T01:48:21.695Z,0.40
2022-12-05T01:50:50.836Z,0.50
2022-12-05T01:53:19.269Z,0.50
2022-12-05T01:55:48.577Z,0.50
2022-12-05T01:58:16.085Z,0.40
2022-12-05T02:00:43.687Z,0.40
2022-12-05T02:03:18.445Z,0.40
2022-12-05T02:05:49.037Z,0.50
2022-12-05T02:08:16.653Z,0.50
2022-12-05T02:10:54.525Z,0.50
2022-12-05T02:14:02.494Z,0.50
2022-12-05T02:16:41.700Z,0.50
2022-12-05T02:19:14.431Z,0.40
2022-12-05T02:22:08.794Z,0.50
2022-12-05T02:24:50.520Z,0.50
2022-12-05T02:27:45.593Z,0.50
2022-12-05T02:30:21.367Z,0.50
2022-12-05T02:33:02.857Z,0.50
2022-12-05T02:35:38.636Z,0.50
2022-12-05T02:38:41.256Z,0.50
2022-12-05T02:41:15.150Z,0.50
2022-12-05T02:43:53.591Z,0.60
2022-12-05T02:46:26.701Z,0.50
2022-12-05T02:48:59.955Z,0.50
2022-12-05T02:51:31.608Z,0.50
2022-12-05T02:54:01.905Z,0.50
2022-12-05T02:56:32.116Z,0.50
2022-12-05T02:58:58.969Z,0.40
2022-12-05T03:01:28.690Z,0.40
2022-12-05T03:03:57.707Z,0.40
2022-12-05T03:06:31.018Z,0.40
2022-12-05T03:09:27.242Z,0.40
2022-12-05T03:12:10.073Z,0.50
2022-12-05T03:14:43.771Z,0.50
2022-12-05T03:17:18.479Z,0.50
2022-12-05T03:19:54.329Z,0.60
2022-12-05T03:22:29.226Z,0.60
2022-12-05T03:24:59.528Z,0.60
2022-12-05T03:27:44.130Z,0.60
2022-12-05T03:30:20.824Z,0.60
2022-12-05T03:33:05.766Z,0.60
2022-12-05T03:35:49.549Z,0.60
2022-12-05T03:38:35.086Z,0.60
2022-12-05T03:41:09.820Z,0.60
2022-12-05T03:43:47.001Z,0.60
2022-12-05T03:46:41.033Z,0.60
2022-12-05T03:51:40.074Z,0.70
2022-12-05T03:54:29.814Z,0.60
2022-12-05T03:57:05.828Z,0.60
2022-12-05T03:59:46.091Z,0.60
2022-12-05T04:02:27.220Z,0.60
2022-12-05T04:05:01.696Z,0.60
2022-12-05T04:07:32.731Z,0.60
2022-12-05T04:10:05.111Z,0.70
2022-12-05T04:12:34.912Z,0.70
2022-12-05T04:15:14.313Z,0.70
2022-12-05T04:17:56.977Z,0.70
2022-12-05T04:20:57.534Z,0.70
2022-12-05T04:23:25.534Z,0.70
2022-12-05T04:26:01.287Z,0.70
2022-12-05T04:28:36.662Z,0.70
2022-12-05T04:31:27.562Z,0.70
2022-12-05T04:34:02.817Z,0.80
2022-12-05T04:36:34.041Z,0.80
2022-12-05T04:39:21.445Z,0.80
2022-12-05T04:41:50.804Z,0.80
2022-12-05T04:44:22.745Z,0.80
2022-12-05T04:46:51.076Z,0.80
2022-12-05T04:49:26.207Z,0.80
2022-12-05T04:51:56.373Z,0.80
2022-12-05T04:54:34.610Z,0.80
2022-12-05T04:57:26.414Z,0.90
2022-12-05T04:59:53.659Z,0.90
2022-12-05T05:02:33.662Z,0.90
2022-12-05T05:05:02.554Z,1.00
2022-12-05T05:07:29.476Z,1.00
2022-12-05T05:09:57.382Z,1.00
2022-12-05T05:12:24.546Z,1.00
2022-12-05T05:14:51.384Z,1.10
2022-12-05T05:17:18.148Z,1.10
2022-12-05T05:19:44.961Z,1.10
2022-12-05T05:22:11.830Z,1.10
2022-12-05T05:24:38.726Z,1.10
2022-12-05T05:27:05.478Z,1.10
2022-12-05T05:29:32.285Z,1.20
2022-12-05T05:31:59.094Z,1.10
2022-12-05T05:34:28.532Z,1.20
2022-12-05T05:36:55.659Z,1.20
2022-12-05T05:39:22.961Z,1.20
2022-12-05T05:41:49.838Z,1.20
2022-12-05T05:44:16.674Z,1.20
2022-12-05T05:46:43.524Z,1.20
2022-12-05T05:49:10.867Z,1.20
2022-12-05T05:51:37.745Z,1.20
2022-12-05T05:54:04.938Z,1.20
2022-12-05T05:56:31.795Z,1.30
2022-12-05T05:59:03.671Z,1.20
2022-12-05T06:01:31.508Z,1.30
2022-12-05T06:03:59.136Z,1.30
2022-12-05T06:06:26.542Z,1.30
2022-12-05T06:08:54.846Z,1.30
2022-12-05T06:11:26.282Z,1.30
2022-12-05T06:13:58.422Z,1.20
2022-12-05T06:16:25.777Z,1.20
2022-12-05T06:18:53.333Z,1.20
2022-12-05T06:21:20.637Z,1.20
2022-12-05T06:23:47.976Z,1.30
2022-12-05T06:26:17.526Z,1.30
2022-12-05T06:28:45.658Z,1.30
2022-12-05T06:31:15.424Z,1.30
2022-12-05T06:33:42.676Z,1.30
2022-12-05T06:36:12.950Z,1.30
2022-12-05T06:38:42.231Z,1.30
2022-12-05T06:41:13.849Z,1.40
2022-12-05T06:43:41.210Z,1.30
2022-12-05T06:46:09.411Z,1.30
2022-12-05T06:48:36.376Z,1.30
2022-12-05T06:51:03.963Z,1.40
2022-12-05T06:53:30.913Z,1.40
2022-12-05T06:56:04.543Z,1.30
2022-12-05T06:58:31.510Z,1.30
2022-12-05T07:01:17.298Z,1.30
2022-12-05T07:03:44.222Z,1.50
2022-12-05T07:06:11.612Z,1.80
2022-12-05T07:08:38.464Z,1.90
2022-12-05T07:11:05.443Z,2.10
2022-12-05T07:13:32.723Z,2.30
2022-12-05T07:16:00.308Z,1.90
2022-12-05T07:18:27.408Z,1.70
2022-12-05T07:21:15.142Z,1.50
2022-12-05T07:23:44.015Z,1.50
2022-12-05T07:26:14.064Z,1.50
2022-12-05T07:28:41.168Z,1.60
2022-12-05T07:31:14.529Z,1.60
2022-12-05T07:33:41.922Z,1.60
2022-12-05T07:36:14.762Z,1.60
2022-12-05T07:38:42.848Z,1.70
2022-12-05T07:41:27.483Z,1.60
2022-12-05T07:43:56.150Z,1.60
2022-12-05T07:46:24.478Z,1.60
2022-12-05T07:48:51.598Z,1.60
2022-12-05T07:51:19.777Z,1.60
2022-12-05T07:53:47.592Z,1.60
2022-12-05T07:56:17.061Z,1.60
2022-12-05T07:58:45.384Z,1.60
2022-12-05T08:01:15.438Z,1.70
2022-12-05T08:03:42.939Z,1.70
2022-12-05T08:06:12.959Z,1.70
2022-12-05T08:08:39.778Z,1.70
2022-12-05T08:11:10.034Z,1.70
2022-12-05T08:13:37.733Z,1.80
2022-12-05T08:16:06.830Z,1.80
2022-12-05T08:18:34.195Z,1.80
2022-12-05T08:21:10.716Z,1.90
2022-12-05T08:23:39.364Z,1.80
2022-12-05T08:26:12.344Z,1.90
2022-12-05T08:28:40.061Z,1.90
2022-12-05T08:31:13.132Z,1.90
2022-12-05T08:33:40.388Z,1.90
2022-12-05T08:36:10.033Z,1.90
2022-12-05T08:38:37.289Z,2.00
2022-12-05T08:41:14.007Z,2.00
2022-12-05T08:43:41.851Z,2.00
2022-12-05T08:46:09.576Z,2.10
2022-12-05T08:48:36.955Z,2.10
2022-12-05T08:51:08.707Z,2.10
2022-12-05T08:53:42.463Z,2.10
2022-12-05T08:56:11.419Z,2.00
2022-12-05T08:58:38.885Z,2.00
2022-12-05T09:01:15.730Z,2.00
2022-12-05T09:03:47.846Z,2.00
2022-12-05T09:06:21.225Z,2.00
2022-12-05T09:08:49.132Z,2.00
2022-12-05T09:11:18.816Z,2.00
2022-12-05T09:13:46.971Z,2.00
2022-12-05T09:16:37.883Z,2.00
2022-12-05T09:19:27.611Z,2.10
2022-12-05T09:21:55.472Z,2.10
2022-12-05T09:24:22.355Z,2.10
2022-12-05T09:26:49.742Z,2.20
2022-12-05T09:29:18.103Z,2.20
2022-12-05T09:31:47.283Z,2.10
2022-12-05T09:34:15.395Z,2.20
2022-12-05T09:36:43.754Z,2.20
2022-12-05T09:39:10.838Z,2.20
2022-12-05T09:42:02.007Z,2.30
2022-12-05T09:44:57.018Z,2.30
2022-12-05T09:47:29.836Z,2.40
2022-12-05T09:50:29.651Z,2.40
2022-12-05T09:53:24.307Z,2.40
2022-12-05T09:55:59.983Z,2.50
2022-12-05T09:58:42.877Z,2.50
2022-12-05T10:01:39.041Z,2.50
2022-12-05T10:04:34.949Z,2.70
2022-12-05T10:07:30.676Z,2.70
2022-12-05T10:10:29.096Z,2.70
2022-12-05T10:13:08.284Z,2.80
2022-12-05T10:15:57.857Z,2.90
2022-12-05T10:18:30.181Z,2.90
2022-12-05T10:21:05.461Z,2.90
2022-12-05T10:23:57.579Z,2.90
2022-12-05T10:26:43.935Z,3.00
2022-12-05T10:29:35.278Z,3.00
2022-12-05T10:32:17.007Z,3.00
2022-12-05T10:34:45.932Z,3.10
2022-12-05T10:37:21.067Z,3.20
2022-12-05T10:39:49.546Z,3.30
2022-12-05T10:42:29.787Z,3.20
2022-12-05T10:45:04.530Z,3.20
2022-12-05T10:47:32.281Z,3.20
2022-12-05T10:50:07.723Z,3.20
2022-12-05T10:52:36.130Z,3.30
2022-12-05T10:55:06.381Z,3.30
2022-12-05T10:57:33.263Z,3.50
2022-12-05T11:00:11.883Z,3.50
2022-12-05T11:02:40.772Z,3.50
2022-12-05T11:05:08.010Z,3.60
2022-12-05T11:07:44.025Z,3.60
2022-12-05T11:10:26.607Z,3.50
2022-12-05T11:12:57.038Z,3.70
2022-12-05T11:15:28.112Z,3.70
2022-12-05T11:17:57.897Z,3.70
2022-12-05T11:20:25.066Z,3.70
2022-12-05T11:22:56.528Z,3.80
2022-12-05T11:25:28.401Z,3.90
2022-12-05T11:28:00.983Z,3.80
2022-12-05T11:30:29.737Z,3.80
2022-12-05T11:33:23.233Z,3.80
2022-12-05T11:35:53.315Z,3.90
2022-12-05T11:38:25.132Z,4.00
2022-12-05T11:41:19.346Z,4.00
2022-12-05T11:43:46.110Z,4.20
2022-12-05T11:46:39.090Z,4.30
2022-12-05T11:49:30.488Z,4.30
2022-12-05T11:52:00.287Z,4.20
2022-12-05T11:55:07.157Z,4.10
2022-12-05T11:57:56.752Z,4.00
2022-12-05T12:00:37.890Z,3.90
2022-12-05T12:03:15.168Z,3.90
2022-12-05T12:05:50.529Z,3.90
2022-12-05T12:08:26.182Z,4.00
2022-12-05T12:11:19.781Z,3.90
2022-12-05T12:14:05.326Z,4.00
2022-12-05T12:17:02.185Z,4.00
2022-12-05T12:19:57.449Z,3.90
2022-12-05T12:22:59.105Z,4.20
2022-12-05T12:25:34.840Z,4.00
2022-12-05T12:28:17.039Z,4.00
2022-12-05T12:30:52.758Z,3.90
2022-12-05T12:33:37.188Z,3.90
2022-12-05T12:36:04.223Z,3.90
2022-12-05T12:38:40.301Z,4.00
2022-12-05T12:41:16.563Z,4.00
2022-12-05T12:44:20.431Z,4.00
2022-12-05T12:46:58.519Z,4.10
2022-12-05T12:49:35.734Z,4.10
2022-12-05T12:52:10.821Z,4.20
2022-12-05T12:55:05.504Z,4.10
2022-12-05T12:57:47.095Z,4.00
2022-12-05T13:00:45.510Z,4.00
2022-12-05T13:03:19.847Z,3.80
2022-12-05T13:05:52.552Z,3.80
2022-12-05T13:08:24.157Z,3.80
2022-12-05T13:10:51.664Z,3.80
2022-12-05T13:13:25.979Z,3.70
2022-12-05T13:15:58.748Z,3.70
2022-12-05T13:18:26.826Z,3.80
2022-12-05T13:21:03.179Z,3.70
2022-12-05T13:23:33.019Z,3.80
2022-12-05T13:26:01.792Z,3.90
2022-12-05T13:28:42.442Z,4.30
2022-12-05T13:31:11.599Z,4.60
2022-12-05T13:33:50.517Z,4.80
2022-12-05T13:36:39.379Z,4.70
2022-12-05T13:39:33.955Z,4.80
2022-12-05T13:42:15.893Z,4.60
2022-12-05T13:44:52.548Z,4.70
2022-12-05T13:47:56.080Z,4.60
2022-12-05T13:50:41.388Z,4.60
2022-12-05T13:53:26.028Z,4.60
2022-12-05T13:56:05.343Z,4.60
2022-12-05T13:58:43.299Z,4.80
2022-12-05T14:01:28.419Z,5.00
2022-12-05T14:04:16.711Z,5.00
2022-12-05T14:06:57.438Z,5.10
2022-12-05T14:09:30.615Z,5.60
2022-12-05T14:12:12.516Z,5.80
2022-12-05T14:15:00.634Z,5.90
2022-12-05T14:17:30.700Z,5.70
2022-12-05T14:20:00.627Z,5.60
2022-12-05T14:22:53.853Z,5.40
2022-12-05T14:25:58.350Z,5.30
2022-12-05T14:28:47.788Z,5.20
2022-12-05T14:31:41.064Z,5.00
2022-12-05T14:34:13.704Z,4.80
2022-12-05T14:36:58.444Z,4.60
2022-12-05T14:39:42.301Z,4.50
2022-12-05T14:42:27.361Z,4.40
2022-12-05T14:45:00.727Z,4.40
2022-12-05T14:47:31.778Z,4.30
2022-12-05T14:50:36.206Z,4.20
2022-12-05T14:53:24.063Z,4.20
2022-12-05T14:55:54.109Z,4.00
2022-12-05T14:58:33.419Z,3.90
2022-12-05T15:01:07.777Z,3.90
2022-12-05T15:03:55.590Z,3.90
2022-12-05T15:06:25.872Z,3.80
2022-12-05T15:09:14.507Z,3.80
2022-12-05T15:11:44.082Z,3.80
2022-12-05T15:14:22.152Z,3.70
2022-12-05T15:16:52.377Z,3.70
2022-12-05T15:19:59.495Z,3.60
2022-12-05T15:22:29.358Z,3.60
2022-12-05T15:24:56.716Z,3.60
2022-12-05T15:27:24.081Z,3.60
2022-12-05T15:29:55.015Z,3.60
2022-12-05T15:32:25.566Z,3.60
2022-12-05T15:35:14.087Z,3.50
2022-12-05T15:37:49.885Z,3.40
2022-12-05T15:40:21.809Z,3.40
2022-12-05T15:42:51.016Z,3.40
2022-12-05T15:45:23.677Z,3.40
2022-12-05T15:47:54.998Z,3.40
2022-12-05T15:50:43.999Z,3.30
2022-12-05T15:53:37.133Z,3.30
2022-12-05T15:56:39.157Z,3.30
2022-12-05T15:59:16.405Z,3.20
2022-12-05T16:01:47.095Z,3.10
2022-12-05T16:04:45.754Z,3.10
2022-12-05T16:07:14.839Z,3.10
2022-12-05T16:09:44.319Z,3.10
2022-12-05T16:12:37.690Z,3.00
2022-12-05T16:15:11.755Z,2.90
2022-12-05T16:17:47.216Z,2.90
2022-12-05T16:20:17.086Z,2.80
2022-12-05T16:22:52.746Z,2.80
2022-12-05T16:25:25.480Z,2.80
2022-12-05T16:28:01.573Z,2.80
2022-12-05T16:30:29.794Z,2.80
2022-12-05T16:33:05.509Z,2.80
2022-12-05T16:35:38.910Z,2.70
2022-12-05T16:38:20.434Z,2.70
2022-12-05T16:40:50.149Z,2.60
2022-12-05T16:43:23.967Z,2.50
2022-12-05T16:45:53.193Z,2.50
2022-12-05T16:48:24.262Z,2.30
2022-12-05T16:50:53.350Z,2.20
2022-12-05T16:53:29.634Z,2.10
2022-12-05T16:55:58.165Z,2.00
2022-12-05T16:58:27.199Z,1.80
2022-12-05T17:01:06.701Z,1.80
2022-12-05T17:03:35.744Z,1.80
2022-12-05T17:06:03.216Z,1.70
2022-12-05T17:08:30.317Z,1.50
2022-12-05T17:10:58.010Z,1.30
2022-12-05T17:13:25.314Z,1.30
2022-12-05T17:15:52.533Z,1.00
2022-12-05T17:18:25.271Z,0.90
2022-12-05T17:20:56.285Z,0.90
2022-12-05T17:23:23.427Z,0.80
2022-12-05T17:25:55.718Z,0.60
2022-12-05T17:28:23.356Z,0.40
2022-12-05T17:30:50.497Z,0.40
2022-12-05T17:33:19.114Z,0.30
2022-12-05T17:35:46.004Z,0.20
2022-12-05T17:38:12.940Z,0.00
2022-12-05T17:40:40.454Z,0.00
2022-12-05T17:43:07.266Z,0.00
2022-12-05T17:45:34.160Z,0.10
2022-12-05T17:48:00.978Z,0.00
2022-12-05T17:50:28.011Z,0.00
2022-12-05T17:52:56.849Z,0.00
2022-12-05T17:55:28.587Z,-0.10
2022-12-05T17:57:55.759Z,-0.10
2022-12-05T18:00:24.371Z,-0.20
2022-12-05T18:02:52.622Z,-0.30
2022-12-05T18:05:19.839Z,-0.40
2022-12-05T18:07:47.324Z,-0.40
2022-12-05T18:10:17.733Z,-0.50
2022-12-05T18:12:44.945Z,-0.50
2022-12-05T18:15:12.625Z,-0.60
2022-12-05T18:17:39.449Z,-0.70
2022-12-05T18:20:09.121Z,-0.70
2022-12-05T18:22:36.266Z,-0.70
2022-12-05T18:25:03.754Z,-0.70
2022-12-05T18:27:30.921Z,-0.60
2022-12-05T18:29:58.222Z,-0.50
2022-12-05T18:32:26.465Z,-0.40
2022-12-05T18:34:53.454Z,-0.30
2022-12-05T18:37:20.351Z,-0.20
2022-12-05T18:39:47.376Z,-0.10
2022-12-05T18:42:15.480Z,0.00
2022-12-05T18:44:42.993Z,0.20
2022-12-05T18:47:10.197Z,0.30
2022-12-05T18:49:38.513Z,0.40
2022-12-05T18:52:05.743Z,0.50
2022-12-05T18:54:32.623Z,0.60
2022-12-05T18:56:59.488Z,0.70
2022-12-05T18:59:26.335Z,0.80
2022-12-05T19:01:53.280Z,0.90
2022-12-05T19:04:21.885Z,1.00
2022-12-05T19:06:54.286Z,1.10
2022-12-05T19:09:24.004Z,1.10
2022-12-05T19:11:54.925Z,1.20
2022-12-05T19:14:22.004Z,1.30
2022-12-05T19:16:56.310Z,1.40
2022-12-05T19:19:25.193Z,1.40
2022-12-05T19:21:53.558Z,1.50
2022-12-05T19:24:20.465Z,1.60
2022-12-05T19:26:50.129Z,1.60
2022-12-05T19:29:17.381Z,1.70
2022-12-05T19:31:44.849Z,1.70
2022-12-05T19:34:12.195Z,1.70
2022-12-05T19:36:41.948Z,1.80
2022-12-05T19:39:18.921Z,1.80
2022-12-05T19:41:46.341Z,1.80
2022-12-05T19:44:13.565Z,1.90
2022-12-05T19:46:40.994Z,1.90
2022-12-05T19:49:13.241Z,1.90
2022-12-05T19:51:40.250Z,1.90
2022-12-05T19:54:08.944Z,1.90
2022-12-05T19:56:36.971Z,1.80
2022-12-05T19:59:04.460Z,1.80
2022-12-05T20:01:40.230Z,1.80
2022-12-05T20:04:10.490Z,1.80
2022-12-05T20:06:39.872Z,1.80
2022-12-05T20:09:09.355Z,1.70
2022-12-05T20:11:39.200Z,1.80
2022-12-05T20:14:06.573Z,1.70
2022-12-05T20:16:33.900Z,1.70
2022-12-05T20:19:01.087Z,1.70
2022-12-05T20:21:31.772Z,1.70
2022-12-05T20:24:00.761Z,1.70
2022-12-05T20:26:37.159Z,1.70
2022-12-05T20:29:05.175Z,1.80
2022-12-05T20:31:34.824Z,1.70
2022-12-05T20:34:02.074Z,1.80
2022-12-05T20:36:30.791Z,1.80
2022-12-05T20:39:00.837Z,1.80
2022-12-05T20:41:28.598Z,1.90
2022-12-05T20:43:58.364Z,1.90
2022-12-05T20:46:25.776Z,2.00
2022-12-05T20:48:53.578Z,2.00
2022-12-05T20:51:25.882Z,1.90
2022-12-05T20:53:52.885Z,1.90
2022-12-05T20:56:28.299Z,1.90
2022-12-05T20:58:57.439Z,1.90
2022-12-05T21:01:26.180Z,1.90
2022-12-05T21:03:53.901Z,1.90
2022-12-05T21:06:26.927Z,1.80
2022-12-05T21:08:54.632Z,1.90
2022-12-05T21:11:22.761Z,1.90
2022-12-05T21:13:49.650Z,1.80
2022-12-05T21:16:20.103Z,1.80
2022-12-05T21:18:47.559Z,1.80
2022-12-05T21:21:17.683Z,1.80
2022-12-05T21:23:46.706Z,1.70
2022-12-05T21:26:16.560Z,1.70
2022-12-05T21:28:44.633Z,1.70
2022-12-05T21:31:15.510Z,1.70
2022-12-05T21:33:46.112Z,1.60
2022-12-05T21:36:12.943Z,1.50
2022-12-05T21:38:39.809Z,1.50
2022-12-05T21:41:07.027Z,1.50
2022-12-05T21:43:34.772Z,1.40
2022-12-05T21:46:01.845Z,1.50
2022-12-05T21:48:28.811Z,1.60
2022-12-05T21:50:56.373Z,1.60
2022-12-05T21:53:23.605Z,1.60
2022-12-05T21:56:11.521Z,1.60
2022-12-05T21:58:42.391Z,1.60
2022-12-05T22:01:11.562Z,1.60
2022-12-05T22:03:38.986Z,1.70
2022-12-05T22:06:08.595Z,1.70
2022-12-05T22:08:36.501Z,1.70
2022-12-05T22:11:08.889Z,1.70
2022-12-05T22:13:36.193Z,1.60
2022-12-05T22:16:04.519Z,1.50
2022-12-05T22:18:31.739Z,1.40
2022-12-05T22:21:00.324Z,1.40
2022-12-05T22:23:27.596Z,1.30
2022-12-05T22:26:11.945Z,1.30
2022-12-05T22:28:39.000Z,1.30
2022-12-05T22:31:08.962Z,1.30
2022-12-05T22:33:36.952Z,1.30
2022-12-05T22:36:06.153Z,1.30
2022-12-05T22:38:35.419Z,1.30
2022-12-05T22:41:04.923Z,1.30
2022-12-05T22:43:33.510Z,1.30
2022-12-05T22:46:07.215Z,1.30
2022-12-05T22:48:35.031Z,1.30
2022-12-05T22:51:03.873Z,1.30
2022-12-05T22:53:31.474Z,1.30
2022-12-05T22:56:12.648Z,1.30
2022-12-05T22:58:39.958Z,1.40
2022-12-05T23:01:27.862Z,1.40
2022-12-05T23:04:00.474Z,1.40
2022-12-05T23:06:28.144Z,1.40
2022-12-05T23:08:55.824Z,1.40
2022-12-05T23:11:24.111Z,1.50
2022-12-05T23:13:53.098Z,1.50
2022-12-05T23:16:25.421Z,1.50
2022-12-05T23:18:56.171Z,1.40
2022-12-05T23:21:39.425Z,1.30
2022-12-05T23:24:11.894Z,1.20
2022-12-05T23:26:42.179Z,1.10
2022-12-05T23:29:12.044Z,1.10
2022-12-05T23:31:40.247Z,1.10
2022-12-05T23:34:08.028Z,1.10
2022-12-05T23:36:36.269Z,1.10
2022-12-05T23:39:03.962Z,1.10
2022-12-05T23:41:30.928Z,1.00
2022-12-05T23:43:58.132Z,0.80
2022-12-05T23:46:27.944Z,0.70
2022-12-05T23:48:55.978Z,0.60
2022-12-05T23:51:25.564Z,0.40
2022-12-05T23:53:55.288Z,0.30
2022-12-05T23:56:25.566Z,0.20
2022-12-05T23:58:54.454Z,0.10
